PWSweather.com
Personal Weather Stations
Station Observations
KCOGRAND2
Redlands, Southcamp Road & Dakota Circle, Grand Junction, CO 81507

Redlands, Southcamp Road & Dakota CircleGrand Junction, CO 81507

Lat: 39.055, Lon: -108.637

Elevation: 4870

Station Type: RadioShack WX200

Latest ConditionsUpdated 4:14:30 PM MDT Saturday, Oct 1, 2016
Currently Today's Max Today's Min Today's Average
Temperature 72.0°F22.2°C 74.5°F23.6°C 50.4°F10.2°C 60.0°F15.6°C
Dew Point 38.8°F3.8°C 47.5°F8.6°C 32.5°F0.3°C 41.3°F5.2°C
Winds 4.0 mph SE6.4 kmh SE 8.0 mph NW12.9 kmh NW - 3.5 mph 5.6 kmh
Wind Gusts 6.3 mph10.1 kmh 13.0 mph20.9 kmh - -
Humidity 30% 80% 24% 55%
Pressure 25.10 in850.0 mb 25.22 in854.0 mb 25.10 in850.0 mb -
Hour Temp Dew Point Humidity Winds Wind Gusts Pressure Precip Precip Rate Daily Precip Total
04:14 PM 72.0°F22.2°C 38.8°F3.8°C 30% 4.0 mph SE6.4 kmh SE 6.3 mph10.1 kmh 25.10 in850.0 mb 0.00 in0.0 mm 0.00 in0.0 mm 0.00 in0.0 mm
04:09 PM 72.0°F22.2°C 37.9°F3.3°C 29% 4.0 mph SSE6.4 kmh SSE 6.9 mph11.1 kmh 25.10 in850.0 mb 0.00 in0.0 mm 0.00 in0.0 mm 0.00 in0.0 mm
04:04 PM 71.6°F22.0°C 35.8°F2.1°C 27% 4.0 mph S6.4 kmh S 5.4 mph8.7 kmh 25.10 in850.0 mb 0.00 in0.0 mm 0.00 in0.0 mm 0.00 in0.0 mm
03:59 PM 71.6°F22.0°C 35.8°F2.1°C 27% 5.0 mph S8.0 kmh S 7.4 mph11.9 kmh 25.10 in850.0 mb 0.00 in0.0 mm 0.00 in0.0 mm 0.00 in0.0 mm
03:54 PM 71.8°F22.1°C 36.0°F2.2°C 27% 6.0 mph S9.7 kmh S 8.3 mph13.4 kmh 25.10 in850.0 mb 0.00 in0.0 mm 0.00 in0.0 mm 0.00 in0.0 mm
03:49 PM 72.1°F22.3°C 36.3°F2.4°C 27% 6.0 mph SSE9.7 kmh SSE 8.7 mph14.0 kmh 25.10 in850.0 mb 0.00 in0.0 mm 0.00 in0.0 mm 0.00 in0.0 mm
03:44 PM 72.1°F22.3°C 37.2°F2.9°C 28% 6.0 mph S9.7 kmh S 9.2 mph14.8 kmh 25.10 in850.0 mb 0.00 in0.0 mm 0.00 in0.0 mm 0.00 in0.0 mm
03:39 PM 72.0°F22.2°C 36.1°F2.3°C 27% 6.0 mph S9.7 kmh S 8.3 mph13.4 kmh 25.10 in850.0 mb 0.00 in0.0 mm 0.00 in0.0 mm 0.00 in0.0 mm
03:34 PM 72.5°F22.5°C 34.7°F1.5°C 25% 6.0 mph S9.7 kmh S 9.6 mph15.4 kmh 25.10 in850.0 mb 0.00 in0.0 mm 0.00 in0.0 mm 0.00 in0.0 mm
03:29 PM 74.1°F23.4°C 35.1°F1.7°C 24% 6.0 mph S9.7 kmh S 8.7 mph14.0 kmh 25.13 in851.0 mb 0.00 in0.0 mm 0.00 in0.0 mm 0.00 in0.0 mm
03:24 PM 74.3°F23.5°C 36.1°F2.3°C 25% 6.0 mph S9.7 kmh S 9.6 mph15.4 kmh 25.13 in851.0 mb 0.00 in0.0 mm 0.00 in0.0 mm 0.00 in0.0 mm
03:19 PM 73.8°F23.2°C 35.8°F2.1°C 25% 6.0 mph S9.7 kmh S 9.2 mph14.8 kmh 25.13 in851.0 mb 0.00 in0.0 mm 0.00 in0.0 mm 0.00 in0.0 mm
03:14 PM 73.6°F23.1°C 34.5°F1.4°C 24% 6.0 mph S9.7 kmh S 9.6 mph15.4 kmh 25.10 in850.0 mb 0.00 in0.0 mm 0.00 in0.0 mm 0.00 in0.0 mm
03:09 PM 73.6°F23.1°C 35.6°F2.0°C 25% 6.0 mph SSW9.7 kmh SSW 9.6 mph15.4 kmh 25.10 in850.0 mb 0.00 in0.0 mm 0.00 in0.0 mm 0.00 in0.0 mm
03:04 PM 73.6°F23.1°C 34.5°F1.4°C 24% 5.0 mph SW8.0 kmh SW 12.1 mph19.5 kmh 25.10 in850.0 mb 0.00 in0.0 mm 0.00 in0.0 mm 0.00 in0.0 mm
02:59 PM 74.1°F23.4°C 35.1°F1.7°C 24% 5.0 mph S8.0 kmh S 8.7 mph14.0 kmh 25.13 in851.0 mb 0.00 in0.0 mm 0.00 in0.0 mm 0.00 in0.0 mm
02:54 PM 74.5°F23.6°C 35.2°F1.8°C 24% 4.0 mph SSE6.4 kmh SSE 8.3 mph13.4 kmh 25.13 in851.0 mb 0.00 in0.0 mm 0.00 in0.0 mm 0.00 in0.0 mm
02:49 PM 74.1°F23.4°C 37.0°F2.8°C 26% 5.0 mph S8.0 kmh S 7.8 mph12.6 kmh 25.13 in851.0 mb 0.00 in0.0 mm 0.00 in0.0 mm 0.00 in0.0 mm
02:44 PM 72.9°F22.7°C 35.1°F1.7°C 25% 6.0 mph S9.7 kmh S 10.1 mph16.3 kmh 25.13 in851.0 mb 0.00 in0.0 mm 0.00 in0.0 mm 0.00 in0.0 mm
02:39 PM 73.2°F22.9°C 36.3°F2.4°C 26% 4.0 mph S6.4 kmh S 8.7 mph14.0 kmh 25.13 in851.0 mb 0.00 in0.0 mm 0.00 in0.0 mm 0.00 in0.0 mm
02:34 PM 72.1°F22.3°C 38.1°F3.4°C 29% 4.0 mph SW6.4 kmh SW 7.8 mph12.6 kmh 25.13 in851.0 mb 0.00 in0.0 mm 0.00 in0.0 mm 0.00 in0.0 mm
02:29 PM 70.7°F21.5°C 37.8°F3.2°C 30% 5.0 mph SSW8.0 kmh SSW 8.7 mph14.0 kmh 25.13 in851.0 mb 0.00 in0.0 mm 0.00 in0.0 mm 0.00 in0.0 mm
02:24 PM 71.1°F21.7°C 38.1°F3.4°C 30% 5.0 mph SSW8.0 kmh SSW 7.4 mph11.9 kmh 25.13 in851.0 mb 0.00 in0.0 mm 0.00 in0.0 mm 0.00 in0.0 mm
02:19 PM 71.4°F21.9°C 39.2°F4.0°C 31% 6.0 mph SSW9.7 kmh SSW 7.8 mph12.6 kmh 25.13 in851.0 mb 0.00 in0.0 mm 0.00 in0.0 mm 0.00 in0.0 mm
02:14 PM 71.4°F21.9°C 39.2°F4.0°C 31% 4.0 mph SW6.4 kmh SW 11.0 mph17.7 kmh 25.13 in851.0 mb 0.00 in0.0 mm 0.00 in0.0 mm 0.00 in0.0 mm
02:09 PM 70.7°F21.5°C 36.9°F2.7°C 29% 3.0 mph SW4.8 kmh SW 6.3 mph10.1 kmh 25.13 in851.0 mb 0.00 in0.0 mm 0.00 in0.0 mm 0.00 in0.0 mm
02:04 PM 70.9°F21.6°C 35.2°F1.8°C 27% 5.0 mph SW8.0 kmh SW 8.3 mph13.4 kmh 25.13 in851.0 mb 0.00 in0.0 mm 0.00 in0.0 mm 0.00 in0.0 mm
01:59 PM 71.8°F22.1°C 36.0°F2.2°C 27% 7.0 mph WSW11.3 kmh WSW 10.5 mph16.9 kmh 25.13 in851.0 mb 0.00 in0.0 mm 0.00 in0.0 mm 0.00 in0.0 mm
01:54 PM 72.3°F22.4°C 36.5°F2.5°C 27% 5.0 mph W8.0 kmh W 9.2 mph14.8 kmh 25.13 in851.0 mb 0.00 in0.0 mm 0.00 in0.0 mm 0.00 in0.0 mm
01:49 PM 72.5°F22.5°C 38.5°F3.6°C 29% 4.0 mph NW6.4 kmh NW 6.9 mph11.1 kmh 25.13 in851.0 mb 0.00 in0.0 mm 0.00 in0.0 mm 0.00 in0.0 mm
01:44 PM 72.7°F22.6°C 35.8°F2.1°C 26% 3.0 mph NE4.8 kmh NE 6.3 mph10.1 kmh 25.16 in852.0 mb 0.00 in0.0 mm 0.00 in0.0 mm 0.00 in0.0 mm
01:39 PM 71.8°F22.1°C 36.0°F2.2°C 27% 2.0 mph NE3.2 kmh NE 6.3 mph10.1 kmh 25.16 in852.0 mb 0.00 in0.0 mm 0.00 in0.0 mm 0.00 in0.0 mm
01:34 PM 71.1°F21.7°C 36.3°F2.4°C 28% 3.0 mph NE4.8 kmh NE 4.9 mph7.9 kmh 25.16 in852.0 mb 0.00 in0.0 mm 0.00 in0.0 mm 0.00 in0.0 mm
01:29 PM 70.3°F21.3°C 34.7°F1.5°C 27% 4.0 mph NW6.4 kmh NW 6.3 mph10.1 kmh 25.16 in852.0 mb 0.00 in0.0 mm 0.00 in0.0 mm 0.00 in0.0 mm
01:24 PM 70.5°F21.4°C 34.9°F1.6°C 27% 4.0 mph S6.4 kmh S 7.4 mph11.9 kmh 25.16 in852.0 mb 0.00 in0.0 mm 0.00 in0.0 mm 0.00 in0.0 mm
01:19 PM 71.2°F21.8°C 33.6°F0.9°C 25% 4.0 mph SSE6.4 kmh SSE 6.7 mph10.8 kmh 25.16 in852.0 mb 0.00 in0.0 mm 0.00 in0.0 mm 0.00 in0.0 mm
01:14 PM 71.1°F21.7°C 33.4°F0.8°C 25% 4.0 mph WSW6.4 kmh WSW 6.9 mph11.1 kmh 25.16 in852.0 mb 0.00 in0.0 mm 0.00 in0.0 mm 0.00 in0.0 mm
01:09 PM 71.2°F21.8°C 33.6°F0.9°C 25% 4.0 mph WNW6.4 kmh WNW 7.4 mph11.9 kmh 25.16 in852.0 mb 0.00 in0.0 mm 0.00 in0.0 mm 0.00 in0.0 mm
01:04 PM 71.6°F22.0°C 32.9°F0.5°C 24% 3.0 mph NE4.8 kmh NE 8.7 mph14.0 kmh 25.16 in852.0 mb 0.00 in0.0 mm 0.00 in0.0 mm 0.00 in0.0 mm
12:59 PM 71.6°F22.0°C 32.9°F0.5°C 24% 3.0 mph E4.8 kmh E 5.4 mph8.7 kmh 25.16 in852.0 mb 0.00 in0.0 mm 0.00 in0.0 mm 0.00 in0.0 mm
12:54 PM 71.1°F21.7°C 33.4°F0.8°C 25% 4.0 mph ENE6.4 kmh ENE 5.8 mph9.3 kmh 25.16 in852.0 mb 0.00 in0.0 mm 0.00 in0.0 mm 0.00 in0.0 mm
12:49 PM 70.0°F21.1°C 32.5°F0.3°C 25% 4.0 mph NNE6.4 kmh NNE 8.3 mph13.4 kmh 25.16 in852.0 mb 0.00 in0.0 mm 0.00 in0.0 mm 0.00 in0.0 mm
12:44 PM 71.2°F21.8°C 33.6°F0.9°C 25% 4.0 mph N6.4 kmh N 6.9 mph11.1 kmh 25.19 in853.0 mb 0.00 in0.0 mm 0.00 in0.0 mm 0.00 in0.0 mm
12:39 PM 70.3°F21.3°C 33.8°F1.0°C 26% 4.0 mph 6.4 kmh 6.9 mph11.1 kmh 25.19 in853.0 mb 0.00 in0.0 mm 0.00 in0.0 mm 0.00 in0.0 mm
12:34 PM 69.8°F21.0°C 33.4°F0.8°C 26% 5.0 mph N8.0 kmh N 7.8 mph12.6 kmh 25.19 in853.0 mb 0.00 in0.0 mm 0.00 in0.0 mm 0.00 in0.0 mm
12:29 PM 69.3°F20.7°C 33.8°F1.0°C 27% 4.0 mph N6.4 kmh N 8.7 mph14.0 kmh 25.19 in853.0 mb 0.00 in0.0 mm 0.00 in0.0 mm 0.00 in0.0 mm
12:24 PM 69.3°F20.7°C 33.8°F1.0°C 27% 4.0 mph NW6.4 kmh NW 7.8 mph12.6 kmh 25.19 in853.0 mb 0.00 in0.0 mm 0.00 in0.0 mm 0.00 in0.0 mm
12:19 PM 68.2°F20.1°C 35.6°F2.0°C 30% 4.0 mph NNW6.4 kmh NNW 6.7 mph10.8 kmh 25.19 in853.0 mb 0.00 in0.0 mm 0.00 in0.0 mm 0.00 in0.0 mm
12:14 PM 67.8°F19.9°C 33.4°F0.8°C 28% 4.0 mph NNE6.4 kmh NNE 6.7 mph10.8 kmh 25.19 in853.0 mb 0.00 in0.0 mm 0.00 in0.0 mm 0.00 in0.0 mm
12:09 PM 68.4°F20.2°C 35.8°F2.1°C 30% 4.0 mph N6.4 kmh N 6.7 mph10.8 kmh 25.19 in853.0 mb 0.00 in0.0 mm 0.00 in0.0 mm 0.00 in0.0 mm
12:04 PM 67.8°F19.9°C 34.3°F1.3°C 29% 4.0 mph NW6.4 kmh NW 7.8 mph12.6 kmh 25.19 in853.0 mb 0.00 in0.0 mm 0.00 in0.0 mm 0.00 in0.0 mm
11:59 AM 68.7°F20.4°C 37.6°F3.1°C 32% 5.0 mph NNW8.0 kmh NNW 6.9 mph11.1 kmh 25.19 in853.0 mb 0.00 in0.0 mm 0.00 in0.0 mm 0.00 in0.0 mm
11:54 AM 67.8°F19.9°C 35.2°F1.8°C 30% 5.0 mph N8.0 kmh N 9.6 mph15.4 kmh 25.19 in853.0 mb 0.00 in0.0 mm 0.00 in0.0 mm 0.00 in0.0 mm
11:49 AM 68.2°F20.1°C 37.2°F2.9°C 32% 4.0 mph N6.4 kmh N 8.7 mph14.0 kmh 25.19 in853.0 mb 0.00 in0.0 mm 0.00 in0.0 mm 0.00 in0.0 mm
11:44 AM 68.2°F20.1°C 37.2°F2.9°C 32% 5.0 mph NNW8.0 kmh NNW 5.8 mph9.3 kmh 25.19 in853.0 mb 0.00 in0.0 mm 0.00 in0.0 mm 0.00 in0.0 mm
11:39 AM 67.1°F19.5°C 37.0°F2.8°C 33% 6.0 mph NW9.7 kmh NW 8.7 mph14.0 kmh 25.19 in853.0 mb 0.00 in0.0 mm 0.00 in0.0 mm 0.00 in0.0 mm
11:34 AM 66.4°F19.1°C 36.3°F2.4°C 33% 6.0 mph WNW9.7 kmh WNW 8.3 mph13.4 kmh 25.19 in853.0 mb 0.00 in0.0 mm 0.00 in0.0 mm 0.00 in0.0 mm
11:29 AM 66.2°F19.0°C 36.3°F2.4°C 33% 6.0 mph WNW9.7 kmh WNW 9.2 mph14.8 kmh 25.22 in854.0 mb 0.00 in0.0 mm 0.00 in0.0 mm 0.00 in0.0 mm
11:24 AM 66.2°F19.0°C 37.0°F2.8°C 34% 6.0 mph WNW9.7 kmh WNW 10.1 mph16.3 kmh 25.22 in854.0 mb 0.00 in0.0 mm 0.00 in0.0 mm 0.00 in0.0 mm
11:19 AM 65.5°F18.6°C 36.3°F2.4°C 34% 7.0 mph NW11.3 kmh NW 10.1 mph16.3 kmh 25.22 in854.0 mb 0.00 in0.0 mm 0.00 in0.0 mm 0.00 in0.0 mm
11:14 AM 65.1°F18.4°C 36.1°F2.3°C 34% 7.0 mph NW11.3 kmh NW 11.0 mph17.7 kmh 25.19 in853.0 mb 0.00 in0.0 mm 0.00 in0.0 mm 0.00 in0.0 mm
11:08 AM 65.5°F18.6°C 36.3°F2.4°C 34% 7.0 mph NW11.3 kmh NW 12.5 mph20.1 kmh 25.19 in853.0 mb 0.00 in0.0 mm 0.00 in0.0 mm 0.00 in0.0 mm
11:03 AM 65.7°F18.7°C 37.2°F2.9°C 35% 7.0 mph NW11.3 kmh NW 11.2 mph18.0 kmh 25.19 in853.0 mb 0.00 in0.0 mm 0.00 in0.0 mm 0.00 in0.0 mm
10:58 AM 65.5°F18.6°C 37.0°F2.8°C 35% 7.0 mph NW11.3 kmh NW 9.6 mph15.4 kmh 25.22 in854.0 mb 0.00 in0.0 mm 0.00 in0.0 mm 0.00 in0.0 mm
10:53 AM 64.6°F18.1°C 37.0°F2.8°C 36% 8.0 mph NW12.9 kmh NW 11.0 mph17.7 kmh 25.22 in854.0 mb 0.00 in0.0 mm 0.00 in0.0 mm 0.00 in0.0 mm
10:48 AM 64.4°F18.0°C 36.9°F2.7°C 36% 7.0 mph NW11.3 kmh NW 13.0 mph20.9 kmh 25.22 in854.0 mb 0.00 in0.0 mm 0.00 in0.0 mm 0.00 in0.0 mm
10:43 AM 64.0°F17.8°C 37.2°F2.9°C 37% 7.0 mph NW11.3 kmh NW 12.5 mph20.1 kmh 25.22 in854.0 mb 0.00 in0.0 mm 0.00 in0.0 mm 0.00 in0.0 mm
10:38 AM 63.9°F17.7°C 37.0°F2.8°C 37% 6.0 mph NW9.7 kmh NW 10.1 mph16.3 kmh 25.22 in854.0 mb 0.00 in0.0 mm 0.00 in0.0 mm 0.00 in0.0 mm
10:33 AM 63.9°F17.7°C 37.8°F3.2°C 38% 5.0 mph NW8.0 kmh NW 8.3 mph13.4 kmh 25.22 in854.0 mb 0.00 in0.0 mm 0.00 in0.0 mm 0.00 in0.0 mm
10:28 AM 63.5°F17.5°C 38.1°F3.4°C 39% 6.0 mph NNW9.7 kmh NNW 8.3 mph13.4 kmh 25.22 in854.0 mb 0.00 in0.0 mm 0.00 in0.0 mm 0.00 in0.0 mm
10:23 AM 62.6°F17.0°C 37.9°F3.3°C 40% 5.0 mph NNW8.0 kmh NNW 10.5 mph16.9 kmh 25.22 in854.0 mb 0.00 in0.0 mm 0.00 in0.0 mm 0.00 in0.0 mm
10:18 AM 62.8°F17.1°C 38.7°F3.7°C 41% 5.0 mph NNW8.0 kmh NNW 8.7 mph14.0 kmh 25.22 in854.0 mb 0.00 in0.0 mm 0.00 in0.0 mm 0.00 in0.0 mm
10:13 AM 62.6°F17.0°C 39.7°F4.3°C 43% 6.0 mph NNW9.7 kmh NNW 9.6 mph15.4 kmh 25.22 in854.0 mb 0.00 in0.0 mm 0.00 in0.0 mm 0.00 in0.0 mm
10:08 AM 61.9°F16.6°C 39.7°F4.3°C 44% 6.0 mph NNW9.7 kmh NNW 9.2 mph14.8 kmh 25.22 in854.0 mb 0.00 in0.0 mm 0.00 in0.0 mm 0.00 in0.0 mm
10:03 AM 60.8°F16.0°C 39.9°F4.4°C 46% 6.0 mph NNW9.7 kmh NNW 10.5 mph16.9 kmh 25.22 in854.0 mb 0.00 in0.0 mm 0.00 in0.0 mm 0.00 in0.0 mm
09:58 AM 60.1°F15.6°C 39.2°F4.0°C 46% 7.0 mph NNW11.3 kmh NNW 9.2 mph14.8 kmh 25.22 in854.0 mb 0.00 in0.0 mm 0.00 in0.0 mm 0.00 in0.0 mm
09:53 AM 60.3°F15.7°C 40.5°F4.7°C 48% 7.0 mph N11.3 kmh N 11.0 mph17.7 kmh 25.22 in854.0 mb 0.00 in0.0 mm 0.00 in0.0 mm 0.00 in0.0 mm
09:48 AM 59.2°F15.1°C 40.1°F4.5°C 49% 7.0 mph N11.3 kmh N 10.5 mph16.9 kmh 25.22 in854.0 mb 0.00 in0.0 mm 0.00 in0.0 mm 0.00 in0.0 mm
09:43 AM 58.8°F14.9°C 40.6°F4.8°C 51% 7.0 mph N11.3 kmh N 10.1 mph16.3 kmh 25.22 in854.0 mb 0.00 in0.0 mm 0.00 in0.0 mm 0.00 in0.0 mm
09:38 AM 58.8°F14.9°C 41.7°F5.4°C 53% 7.0 mph NNW11.3 kmh NNW 10.1 mph16.3 kmh 25.22 in854.0 mb 0.00 in0.0 mm 0.00 in0.0 mm 0.00 in0.0 mm
09:33 AM 57.9°F14.4°C 41.4°F5.2°C 54% 6.0 mph NW9.7 kmh NW 11.0 mph17.7 kmh 25.22 in854.0 mb 0.00 in0.0 mm 0.00 in0.0 mm 0.00 in0.0 mm
09:28 AM 57.4°F14.1°C 41.4°F5.2°C 55% 6.0 mph NW9.7 kmh NW 9.2 mph14.8 kmh 25.22 in854.0 mb 0.00 in0.0 mm 0.00 in0.0 mm 0.00 in0.0 mm
09:23 AM 57.0°F13.9°C 41.0°F5.0°C 55% 6.0 mph NNW9.7 kmh NNW 8.7 mph14.0 kmh 25.22 in854.0 mb 0.00 in0.0 mm 0.00 in0.0 mm 0.00 in0.0 mm
09:18 AM 57.0°F13.9°C 41.5°F5.3°C 56% 5.0 mph NNW8.0 kmh NNW 7.4 mph11.9 kmh 25.22 in854.0 mb 0.00 in0.0 mm 0.00 in0.0 mm 0.00 in0.0 mm
09:13 AM 57.0°F13.9°C 42.4°F5.8°C 58% 6.0 mph NNW9.7 kmh NNW 8.3 mph13.4 kmh 25.22 in854.0 mb 0.00 in0.0 mm 0.00 in0.0 mm 0.00 in0.0 mm
09:08 AM 56.5°F13.6°C 41.9°F5.5°C 58% 6.0 mph NNW9.7 kmh NNW 9.6 mph15.4 kmh 25.22 in854.0 mb 0.00 in0.0 mm 0.00 in0.0 mm 0.00 in0.0 mm
09:03 AM 55.8°F13.2°C 41.7°F5.4°C 59% 6.0 mph NW9.7 kmh NW 8.3 mph13.4 kmh 25.22 in854.0 mb 0.00 in0.0 mm 0.00 in0.0 mm 0.00 in0.0 mm
08:58 AM 55.8°F13.2°C 42.4°F5.8°C 61% 5.0 mph NW8.0 kmh NW 7.4 mph11.9 kmh 25.22 in854.0 mb 0.00 in0.0 mm 0.00 in0.0 mm 0.00 in0.0 mm
08:53 AM 55.8°F13.2°C 43.3°F6.3°C 63% 3.0 mph NW4.8 kmh NW 7.4 mph11.9 kmh 25.22 in854.0 mb 0.00 in0.0 mm 0.00 in0.0 mm 0.00 in0.0 mm
08:48 AM 55.9°F13.3°C 45.1°F7.3°C 67% 2.0 mph NNW3.2 kmh NNW 4.5 mph7.2 kmh 25.22 in854.0 mb 0.00 in0.0 mm 0.00 in0.0 mm 0.00 in0.0 mm
08:43 AM 55.2°F12.9°C 45.1°F7.3°C 69% 4.0 mph NW6.4 kmh NW 6.7 mph10.8 kmh 25.22 in854.0 mb 0.00 in0.0 mm 0.00 in0.0 mm 0.00 in0.0 mm
08:38 AM 54.3°F12.4°C 44.8°F7.1°C 70% 4.0 mph NW6.4 kmh NW 6.9 mph11.1 kmh 25.22 in854.0 mb 0.00 in0.0 mm 0.00 in0.0 mm 0.00 in0.0 mm
08:33 AM 53.8°F12.1°C 44.6°F7.0°C 71% 5.0 mph NW8.0 kmh NW 6.3 mph10.1 kmh 25.22 in854.0 mb 0.00 in0.0 mm 0.00 in0.0 mm 0.00 in0.0 mm
08:28 AM 53.2°F11.8°C 44.1°F6.7°C 71% 5.0 mph NW8.0 kmh NW 6.9 mph11.1 kmh 25.22 in854.0 mb 0.00 in0.0 mm 0.00 in0.0 mm 0.00 in0.0 mm
08:23 AM 53.1°F11.7°C 43.5°F6.4°C 70% 5.0 mph NW8.0 kmh NW 8.7 mph14.0 kmh 25.22 in854.0 mb 0.00 in0.0 mm 0.00 in0.0 mm 0.00 in0.0 mm
08:18 AM 53.4°F11.9°C 44.2°F6.8°C 71% 4.0 mph NW6.4 kmh NW 7.4 mph11.9 kmh 25.22 in854.0 mb 0.00 in0.0 mm 0.00 in0.0 mm 0.00 in0.0 mm
08:13 AM 53.8°F12.1°C 45.7°F7.6°C 74% 4.0 mph N6.4 kmh N 6.9 mph11.1 kmh 25.22 in854.0 mb 0.00 in0.0 mm 0.00 in0.0 mm 0.00 in0.0 mm
08:08 AM 53.6°F12.0°C 46.2°F7.9°C 76% 4.0 mph N6.4 kmh N 6.3 mph10.1 kmh 25.22 in854.0 mb 0.00 in0.0 mm 0.00 in0.0 mm 0.00 in0.0 mm
08:03 AM 52.5°F11.4°C 45.9°F7.7°C 78% 4.0 mph N6.4 kmh N 5.4 mph8.7 kmh 25.22 in854.0 mb 0.00 in0.0 mm 0.00 in0.0 mm 0.00 in0.0 mm
07:57 AM 52.2°F11.2°C 45.9°F7.7°C 79% 4.0 mph N6.4 kmh N 5.4 mph8.7 kmh 25.22 in854.0 mb 0.00 in0.0 mm 0.00 in0.0 mm 0.00 in0.0 mm
07:52 AM 51.4°F10.8°C 45.1°F7.3°C 79% 4.0 mph N6.4 kmh N 5.4 mph8.7 kmh 25.22 in854.0 mb 0.00 in0.0 mm 0.00 in0.0 mm 0.00 in0.0 mm
07:47 AM 50.5°F10.3°C 43.9°F6.6°C 78% 3.0 mph NNW4.8 kmh NNW 5.4 mph8.7 kmh 25.22 in854.0 mb 0.00 in0.0 mm 0.00 in0.0 mm 0.00 in0.0 mm
07:42 AM 50.7°F10.4°C 44.1°F6.7°C 78% 3.0 mph NNW4.8 kmh NNW 4.5 mph7.2 kmh 25.22 in854.0 mb 0.00 in0.0 mm 0.00 in0.0 mm 0.00 in0.0 mm
07:37 AM 50.7°F10.4°C 44.1°F6.7°C 78% 3.0 mph NNW4.8 kmh NNW 4.5 mph7.2 kmh 25.22 in854.0 mb 0.00 in0.0 mm 0.00 in0.0 mm 0.00 in0.0 mm
07:32 AM 51.1°F10.6°C 44.1°F6.7°C 77% 2.0 mph N3.2 kmh N 4.0 mph6.4 kmh 25.22 in854.0 mb 0.00 in0.0 mm 0.00 in0.0 mm 0.00 in0.0 mm
07:27 AM 51.1°F10.6°C 44.1°F6.7°C 77% 3.0 mph N4.8 kmh N 4.9 mph7.9 kmh 25.19 in853.0 mb 0.00 in0.0 mm 0.00 in0.0 mm 0.00 in0.0 mm
07:22 AM 51.1°F10.6°C 44.1°F6.7°C 77% 3.0 mph NE4.8 kmh NE 4.9 mph7.9 kmh 25.19 in853.0 mb 0.00 in0.0 mm 0.00 in0.0 mm 0.00 in0.0 mm
07:17 AM 50.9°F10.5°C 43.5°F6.4°C 76% 3.0 mph NE4.8 kmh NE 5.4 mph8.7 kmh 25.19 in853.0 mb 0.00 in0.0 mm 0.00 in0.0 mm 0.00 in0.0 mm
07:12 AM 51.4°F10.8°C 43.7°F6.5°C 75% 3.0 mph N4.8 kmh N 5.4 mph8.7 kmh 25.19 in853.0 mb 0.00 in0.0 mm 0.00 in0.0 mm 0.00 in0.0 mm
07:07 AM 51.8°F11.0°C 44.4°F6.9°C 76% 3.0 mph N4.8 kmh N 5.8 mph9.3 kmh 25.19 in853.0 mb 0.00 in0.0 mm 0.00 in0.0 mm 0.00 in0.0 mm
07:02 AM 51.6°F10.9°C 44.6°F7.0°C 77% 3.0 mph NNE4.8 kmh NNE 5.4 mph8.7 kmh 25.19 in853.0 mb 0.00 in0.0 mm 0.00 in0.0 mm 0.00 in0.0 mm
06:57 AM 51.6°F10.9°C 44.6°F7.0°C 77% 3.0 mph N4.8 kmh N 5.4 mph8.7 kmh 25.19 in853.0 mb 0.00 in0.0 mm 0.00 in0.0 mm 0.00 in0.0 mm
06:52 AM 51.6°F10.9°C 44.6°F7.0°C 77% 3.0 mph N4.8 kmh N 4.5 mph7.2 kmh 25.19 in853.0 mb 0.00 in0.0 mm 0.00 in0.0 mm 0.00 in0.0 mm
06:47 AM 51.4°F10.8°C 44.8°F7.1°C 78% 2.0 mph N3.2 kmh N 4.5 mph7.2 kmh 25.19 in853.0 mb 0.00 in0.0 mm 0.00 in0.0 mm 0.00 in0.0 mm
06:42 AM 51.1°F10.6°C 44.1°F6.7°C 77% 1.0 mph N1.6 kmh N 3.1 mph5.0 kmh 25.19 in853.0 mb 0.00 in0.0 mm 0.00 in0.0 mm 0.00 in0.0 mm
06:37 AM 51.3°F10.7°C 44.2°F6.8°C 77% 2.0 mph N3.2 kmh N 4.0 mph6.4 kmh 25.19 in853.0 mb 0.00 in0.0 mm 0.00 in0.0 mm 0.00 in0.0 mm
06:32 AM 51.6°F10.9°C 44.2°F6.8°C 76% 2.0 mph N3.2 kmh N 4.5 mph7.2 kmh 25.19 in853.0 mb 0.00 in0.0 mm 0.00 in0.0 mm 0.00 in0.0 mm
06:27 AM 52.0°F11.1°C 44.6°F7.0°C 76% 2.0 mph N3.2 kmh N 4.0 mph6.4 kmh 25.19 in853.0 mb 0.00 in0.0 mm 0.00 in0.0 mm 0.00 in0.0 mm
06:22 AM 52.9°F11.6°C 46.2°F7.9°C 78% 3.0 mph N4.8 kmh N 5.4 mph8.7 kmh 25.19 in853.0 mb 0.00 in0.0 mm 0.00 in0.0 mm 0.00 in0.0 mm
06:17 AM 53.1°F11.7°C 47.1°F8.4°C 80% 4.0 mph NNW6.4 kmh NNW 6.3 mph10.1 kmh 25.19 in853.0 mb 0.00 in0.0 mm 0.00 in0.0 mm 0.00 in0.0 mm
06:12 AM 51.6°F10.9°C 45.7°F7.6°C 80% 4.0 mph N6.4 kmh N 6.7 mph10.8 kmh 25.19 in853.0 mb 0.00 in0.0 mm 0.00 in0.0 mm 0.00 in0.0 mm
06:07 AM 51.1°F10.6°C 44.8°F7.1°C 79% 2.0 mph N3.2 kmh N 5.8 mph9.3 kmh 25.19 in853.0 mb 0.00 in0.0 mm 0.00 in0.0 mm 0.00 in0.0 mm
06:02 AM 50.4°F10.2°C 43.7°F6.5°C 78% 3.0 mph NNE4.8 kmh NNE 5.8 mph9.3 kmh 25.19 in853.0 mb 0.00 in0.0 mm 0.00 in0.0 mm 0.00 in0.0 mm
05:57 AM 51.6°F10.9°C 44.6°F7.0°C 77% 4.0 mph NNE6.4 kmh NNE 6.3 mph10.1 kmh 25.19 in853.0 mb 0.00 in0.0 mm 0.00 in0.0 mm 0.00 in0.0 mm
05:52 AM 51.4°F10.8°C 44.1°F6.7°C 76% 3.0 mph NNE4.8 kmh NNE 4.9 mph7.9 kmh 25.19 in853.0 mb 0.00 in0.0 mm 0.00 in0.0 mm 0.00 in0.0 mm
05:47 AM 52.0°F11.1°C 44.6°F7.0°C 76% 3.0 mph NNE4.8 kmh NNE 4.5 mph7.2 kmh 25.19 in853.0 mb 0.00 in0.0 mm 0.00 in0.0 mm 0.00 in0.0 mm
05:42 AM 51.8°F11.0°C 44.4°F6.9°C 76% 2.0 mph NNE3.2 kmh NNE 4.0 mph6.4 kmh 25.19 in853.0 mb 0.00 in0.0 mm 0.00 in0.0 mm 0.00 in0.0 mm
05:37 AM 52.0°F11.1°C 44.6°F7.0°C 76% 2.0 mph NNE3.2 kmh NNE 3.6 mph5.8 kmh 25.19 in853.0 mb 0.00 in0.0 mm 0.00 in0.0 mm 0.00 in0.0 mm
05:32 AM 52.3°F11.3°C 44.6°F7.0°C 75% 3.0 mph NNE4.8 kmh NNE 4.5 mph7.2 kmh 25.19 in853.0 mb 0.00 in0.0 mm 0.00 in0.0 mm 0.00 in0.0 mm
05:27 AM 52.3°F11.3°C 44.6°F7.0°C 75% 3.0 mph N4.8 kmh N 5.4 mph8.7 kmh 25.19 in853.0 mb 0.00 in0.0 mm 0.00 in0.0 mm 0.00 in0.0 mm
05:22 AM 52.9°F11.6°C 45.1°F7.3°C 75% 3.0 mph N4.8 kmh N 5.4 mph8.7 kmh 25.19 in853.0 mb 0.00 in0.0 mm 0.00 in0.0 mm 0.00 in0.0 mm
05:17 AM 52.9°F11.6°C 45.1°F7.3°C 75% 2.0 mph N3.2 kmh N 4.0 mph6.4 kmh 25.19 in853.0 mb 0.00 in0.0 mm 0.00 in0.0 mm 0.00 in0.0 mm
05:12 AM 53.1°F11.7°C 45.7°F7.6°C 76% 2.0 mph NNE3.2 kmh NNE 4.9 mph7.9 kmh 25.19 in853.0 mb 0.00 in0.0 mm 0.00 in0.0 mm 0.00 in0.0 mm
05:07 AM 52.9°F11.6°C 46.2°F7.9°C 78% 1.0 mph NNE1.6 kmh NNE 5.8 mph9.3 kmh 25.19 in853.0 mb 0.00 in0.0 mm 0.00 in0.0 mm 0.00 in0.0 mm
05:02 AM 51.4°F10.8°C 44.8°F7.1°C 78% 1.0 mph NNE1.6 kmh NNE 3.1 mph5.0 kmh 25.19 in853.0 mb 0.00 in0.0 mm 0.00 in0.0 mm 0.00 in0.0 mm
04:57 AM 51.4°F10.8°C 44.4°F6.9°C 77% 2.0 mph NNE3.2 kmh NNE 4.0 mph6.4 kmh 25.19 in853.0 mb 0.00 in0.0 mm 0.00 in0.0 mm 0.00 in0.0 mm
04:52 AM 51.8°F11.0°C 44.8°F7.1°C 77% 2.0 mph NNE3.2 kmh NNE 4.0 mph6.4 kmh 25.19 in853.0 mb 0.00 in0.0 mm 0.00 in0.0 mm 0.00 in0.0 mm
04:47 AM 52.2°F11.2°C 45.1°F7.3°C 77% Calm Calm 3.1 mph5.0 kmh 25.19 in853.0 mb 0.00 in0.0 mm 0.00 in0.0 mm 0.00 in0.0 mm
04:42 AM 52.0°F11.1°C 45.0°F7.2°C 77% Calm Calm -- 25.19 in853.0 mb 0.00 in0.0 mm 0.00 in0.0 mm 0.00 in0.0 mm
04:37 AM 52.0°F11.1°C 44.6°F7.0°C 76% Calm Calm 3.1 mph5.0 kmh 25.19 in853.0 mb 0.00 in0.0 mm 0.00 in0.0 mm 0.00 in0.0 mm
04:32 AM 52.3°F11.3°C 44.6°F7.0°C 75% 1.0 mph N1.6 kmh N 4.0 mph6.4 kmh 25.19 in853.0 mb 0.00 in0.0 mm 0.00 in0.0 mm 0.00 in0.0 mm
04:27 AM 53.1°F11.7°C 45.3°F7.4°C 75% 1.0 mph N1.6 kmh N 3.6 mph5.8 kmh 25.19 in853.0 mb 0.00 in0.0 mm 0.00 in0.0 mm 0.00 in0.0 mm
04:22 AM 53.4°F11.9°C 46.0°F7.8°C 76% 2.0 mph NNE3.2 kmh NNE 4.9 mph7.9 kmh 25.19 in853.0 mb 0.00 in0.0 mm 0.00 in0.0 mm 0.00 in0.0 mm
04:17 AM 53.2°F11.8°C 46.2°F7.9°C 77% 2.0 mph N3.2 kmh N 4.0 mph6.4 kmh 25.19 in853.0 mb 0.00 in0.0 mm 0.00 in0.0 mm 0.00 in0.0 mm
04:12 AM 52.9°F11.6°C 45.9°F7.7°C 77% 2.0 mph NNW3.2 kmh NNW 4.9 mph7.9 kmh 25.19 in853.0 mb 0.00 in0.0 mm 0.00 in0.0 mm 0.00 in0.0 mm
04:07 AM 52.9°F11.6°C 45.9°F7.7°C 77% 2.0 mph N3.2 kmh N 4.9 mph7.9 kmh 25.19 in853.0 mb 0.00 in0.0 mm 0.00 in0.0 mm 0.00 in0.0 mm
04:02 AM 52.5°F11.4°C 45.9°F7.7°C 78% 4.0 mph NNE6.4 kmh NNE 4.9 mph7.9 kmh 25.19 in853.0 mb 0.00 in0.0 mm 0.00 in0.0 mm 0.00 in0.0 mm
03:57 AM 52.2°F11.2°C 44.8°F7.1°C 76% 3.0 mph N4.8 kmh N 5.4 mph8.7 kmh 25.19 in853.0 mb 0.00 in0.0 mm 0.00 in0.0 mm 0.00 in0.0 mm
03:52 AM 52.5°F11.4°C 44.8°F7.1°C 75% 3.0 mph N4.8 kmh N 4.9 mph7.9 kmh 25.19 in853.0 mb 0.00 in0.0 mm 0.00 in0.0 mm 0.00 in0.0 mm
03:47 AM 53.4°F11.9°C 46.0°F7.8°C 76% 4.0 mph N6.4 kmh N 5.4 mph8.7 kmh 25.19 in853.0 mb 0.00 in0.0 mm 0.00 in0.0 mm 0.00 in0.0 mm
03:42 AM 53.8°F12.1°C 46.8°F8.2°C 77% 4.0 mph N6.4 kmh N 5.8 mph9.3 kmh 25.19 in853.0 mb 0.00 in0.0 mm 0.00 in0.0 mm 0.00 in0.0 mm
03:37 AM 53.1°F11.7°C 46.0°F7.8°C 77% 4.0 mph N6.4 kmh N 5.8 mph9.3 kmh 25.19 in853.0 mb 0.00 in0.0 mm 0.00 in0.0 mm 0.00 in0.0 mm
03:32 AM 52.7°F11.5°C 45.3°F7.4°C 76% 2.0 mph N3.2 kmh N 4.9 mph7.9 kmh 25.19 in853.0 mb 0.00 in0.0 mm 0.00 in0.0 mm 0.00 in0.0 mm
03:27 AM 52.5°F11.4°C 45.1°F7.3°C 76% 1.0 mph N1.6 kmh N 4.0 mph6.4 kmh 25.19 in853.0 mb 0.00 in0.0 mm 0.00 in0.0 mm 0.00 in0.0 mm
03:22 AM 52.7°F11.5°C 45.3°F7.4°C 76% 1.0 mph N1.6 kmh N 3.6 mph5.8 kmh 25.19 in853.0 mb 0.00 in0.0 mm 0.00 in0.0 mm 0.00 in0.0 mm
03:17 AM 52.9°F11.6°C 45.1°F7.3°C 75% 1.0 mph N1.6 kmh N 3.1 mph5.0 kmh 25.19 in853.0 mb 0.00 in0.0 mm 0.00 in0.0 mm 0.00 in0.0 mm
03:12 AM 53.1°F11.7°C 45.3°F7.4°C 75% 1.0 mph N1.6 kmh N 3.1 mph5.0 kmh 25.19 in853.0 mb 0.00 in0.0 mm 0.00 in0.0 mm 0.00 in0.0 mm
03:07 AM 53.2°F11.8°C 45.1°F7.3°C 74% 2.0 mph N3.2 kmh N 3.6 mph5.8 kmh 25.19 in853.0 mb 0.00 in0.0 mm 0.00 in0.0 mm 0.00 in0.0 mm
03:02 AM 53.6°F12.0°C 45.1°F7.3°C 73% 2.0 mph N3.2 kmh N 4.0 mph6.4 kmh 25.19 in853.0 mb 0.00 in0.0 mm 0.00 in0.0 mm 0.00 in0.0 mm
02:57 AM 54.1°F12.3°C 45.3°F7.4°C 72% 1.0 mph NNW1.6 kmh NNW 3.6 mph5.8 kmh 25.19 in853.0 mb 0.00 in0.0 mm 0.00 in0.0 mm 0.00 in0.0 mm
02:52 AM 54.7°F12.6°C 45.9°F7.7°C 72% 2.0 mph NNW3.2 kmh NNW 3.6 mph5.8 kmh 25.19 in853.0 mb 0.00 in0.0 mm 0.00 in0.0 mm 0.00 in0.0 mm
02:47 AM 54.7°F12.6°C 45.5°F7.5°C 71% 3.0 mph NNW4.8 kmh NNW 4.9 mph7.9 kmh 25.19 in853.0 mb 0.00 in0.0 mm 0.00 in0.0 mm 0.00 in0.0 mm
02:42 AM 54.5°F12.5°C 45.3°F7.4°C 71% 3.0 mph N4.8 kmh N 4.5 mph7.2 kmh 25.19 in853.0 mb 0.00 in0.0 mm 0.00 in0.0 mm 0.00 in0.0 mm
02:37 AM 55.8°F13.2°C 46.0°F7.8°C 70% 4.0 mph NNW6.4 kmh NNW 5.8 mph9.3 kmh 25.19 in853.0 mb 0.00 in0.0 mm 0.00 in0.0 mm 0.00 in0.0 mm
02:32 AM 55.8°F13.2°C 46.6°F8.1°C 71% 4.0 mph NNW6.4 kmh NNW 4.9 mph7.9 kmh 25.19 in853.0 mb 0.00 in0.0 mm 0.00 in0.0 mm 0.00 in0.0 mm
02:27 AM 55.8°F13.2°C 46.9°F8.3°C 72% 3.0 mph NNW4.8 kmh NNW 5.4 mph8.7 kmh 25.19 in853.0 mb 0.00 in0.0 mm 0.00 in0.0 mm 0.00 in0.0 mm
02:22 AM 55.2°F12.9°C 46.8°F8.2°C 73% 3.0 mph NNW4.8 kmh NNW 4.5 mph7.2 kmh 25.19 in853.0 mb 0.00 in0.0 mm 0.00 in0.0 mm 0.00 in0.0 mm
02:17 AM 55.6°F13.1°C 47.5°F8.6°C 74% 3.0 mph N4.8 kmh N 4.5 mph7.2 kmh 25.19 in853.0 mb 0.00 in0.0 mm 0.00 in0.0 mm 0.00 in0.0 mm
02:12 AM 54.5°F12.5°C 47.1°F8.4°C 76% 1.0 mph N1.6 kmh N 4.5 mph7.2 kmh 25.19 in853.0 mb 0.00 in0.0 mm 0.00 in0.0 mm 0.00 in0.0 mm
02:07 AM 53.4°F11.9°C 46.0°F7.8°C 76% Calm Calm 2.7 mph4.3 kmh 25.19 in853.0 mb 0.00 in0.0 mm 0.00 in0.0 mm 0.00 in0.0 mm
02:02 AM 53.4°F11.9°C 46.0°F7.8°C 76% Calm Calm -- 25.19 in853.0 mb 0.00 in0.0 mm 0.00 in0.0 mm 0.00 in0.0 mm
01:57 AM 53.4°F11.9°C 45.7°F7.6°C 75% Calm Calm 2.7 mph4.3 kmh 25.19 in853.0 mb 0.00 in0.0 mm 0.00 in0.0 mm 0.00 in0.0 mm
01:52 AM 53.4°F11.9°C 45.7°F7.6°C 75% 1.0 mph N1.6 kmh N 3.1 mph5.0 kmh 25.19 in853.0 mb 0.00 in0.0 mm 0.00 in0.0 mm 0.00 in0.0 mm
01:47 AM 53.8°F12.1°C 45.7°F7.6°C 74% 1.0 mph N1.6 kmh N 2.7 mph4.3 kmh 25.19 in853.0 mb 0.00 in0.0 mm 0.00 in0.0 mm 0.00 in0.0 mm
01:42 AM 54.1°F12.3°C 45.7°F7.6°C 73% 2.0 mph N3.2 kmh N 4.5 mph7.2 kmh 25.19 in853.0 mb 0.00 in0.0 mm 0.00 in0.0 mm 0.00 in0.0 mm
01:37 AM 54.1°F12.3°C 45.0°F7.2°C 71% 2.0 mph N3.2 kmh N 4.5 mph7.2 kmh 25.19 in853.0 mb 0.00 in0.0 mm 0.00 in0.0 mm 0.00 in0.0 mm
01:32 AM 54.7°F12.6°C 44.8°F7.1°C 69% 2.0 mph N3.2 kmh N 4.0 mph6.4 kmh 25.19 in853.0 mb 0.00 in0.0 mm 0.00 in0.0 mm 0.00 in0.0 mm
01:27 AM 55.2°F12.9°C 44.1°F6.7°C 66% 2.0 mph N3.2 kmh N 4.5 mph7.2 kmh 25.19 in853.0 mb 0.00 in0.0 mm 0.00 in0.0 mm 0.00 in0.0 mm
01:22 AM 56.1°F13.4°C 44.6°F7.0°C 65% 1.0 mph N1.6 kmh N 3.6 mph5.8 kmh 25.19 in853.0 mb 0.00 in0.0 mm 0.00 in0.0 mm 0.00 in0.0 mm
01:17 AM 56.3°F13.5°C 43.9°F6.6°C 63% 1.0 mph N1.6 kmh N 3.6 mph5.8 kmh 25.19 in853.0 mb 0.00 in0.0 mm 0.00 in0.0 mm 0.00 in0.0 mm
01:12 AM 57.2°F14.0°C 43.9°F6.6°C 61% Calm Calm 3.1 mph5.0 kmh 25.19 in853.0 mb 0.00 in0.0 mm 0.00 in0.0 mm 0.00 in0.0 mm
01:07 AM 57.4°F14.1°C 44.1°F6.7°C 61% Calm Calm -- 25.19 in853.0 mb 0.00 in0.0 mm 0.00 in0.0 mm 0.00 in0.0 mm
01:02 AM 57.4°F14.1°C 45.0°F7.2°C 63% Calm Calm 2.7 mph4.3 kmh 25.19 in853.0 mb 0.00 in0.0 mm 0.00 in0.0 mm 0.00 in0.0 mm
12:57 AM 56.8°F13.8°C 44.4°F6.9°C 63% Calm Calm 3.1 mph5.0 kmh 25.19 in853.0 mb 0.00 in0.0 mm 0.00 in0.0 mm 0.00 in0.0 mm
12:52 AM 56.8°F13.8°C 44.4°F6.9°C 63% Calm Calm 2.7 mph4.3 kmh 25.19 in853.0 mb 0.00 in0.0 mm 0.00 in0.0 mm 0.00 in0.0 mm
12:47 AM 57.0°F13.9°C 44.1°F6.7°C 62% Calm Calm 2.7 mph4.3 kmh 25.19 in853.0 mb 0.00 in0.0 mm 0.00 in0.0 mm 0.00 in0.0 mm
12:42 AM 57.2°F14.0°C 43.9°F6.6°C 61% Calm Calm 2.7 mph4.3 kmh 25.19 in853.0 mb 0.00 in0.0 mm 0.00 in0.0 mm 0.00 in0.0 mm
12:37 AM 57.6°F14.2°C 44.6°F7.0°C 62% Calm Calm 3.6 mph5.8 kmh 25.19 in853.0 mb 0.00 in0.0 mm 0.00 in0.0 mm 0.00 in0.0 mm
12:32 AM 56.7°F13.7°C 43.0°F6.1°C 60% Calm Calm 2.7 mph4.3 kmh 25.19 in853.0 mb 0.00 in0.0 mm 0.00 in0.0 mm 0.00 in0.0 mm
12:27 AM 57.4°F14.1°C 42.3°F5.7°C 57% Calm Calm 2.7 mph4.3 kmh 25.19 in853.0 mb 0.00 in0.0 mm 0.00 in0.0 mm 0.00 in0.0 mm
12:22 AM 59.2°F15.1°C 42.6°F5.9°C 54% Calm Calm 3.1 mph5.0 kmh 25.19 in853.0 mb 0.00 in0.0 mm 0.00 in0.0 mm 0.00 in0.0 mm
12:17 AM 59.2°F15.1°C 42.6°F5.9°C 54% Calm Calm -- 25.19 in853.0 mb 0.00 in0.0 mm 0.00 in0.0 mm 0.00 in0.0 mm
12:12 AM 58.8°F14.9°C 42.3°F5.7°C 54% Calm Calm 2.7 mph4.3 kmh 25.19 in853.0 mb 0.00 in0.0 mm 0.00 in0.0 mm 0.00 in0.0 mm
12:07 AM 58.8°F14.9°C 42.3°F5.7°C 54% Calm Calm 2.7 mph4.3 kmh 25.19 in853.0 mb 0.00 in0.0 mm 0.00 in0.0 mm 0.00 in0.0 mm
12:02 AM 58.6°F14.8°C 42.1°F5.6°C 54% Calm Calm -- 25.19 in853.0 mb 0.00 in0.0 mm 0.00 in0.0 mm 0.00 in0.0 mm